John & Nicholas — WDD7085 — position and weather

sailwx.info

Track history (hours):
 
Tides and Currents Weather Stations Pressure Air Temp Water Temp Dewpoint Dewpoint Depression Visibility Wind Speed Wind Dir Waves Ship Positions

John & Nicholas

Owner: JOHN & NICHOLAS INC, CAPE MAY, NJ. More information available from US FCC via Universal Licensing System and Coast Guard Vessel Documentation Center.

Last reported at 2018-Apr-23 12:56 UTC. Time now 2018-Apr-26 05:53 UTC.
Position N 38°47' W 073°35'.

Length 29 m.

Type: Fishing. MMSI: 367181750.

Date/timePositionNaut miles runAvg speedWind from/ knotsBaromVisibWave heightAir tempDewpointWater temp
2018-Apr-23 12:56N 38°47' W 073°35'0 0.6
2018-Apr-23 12:21N 38°47' W 073°35'1 2.5
2018-Apr-23 12:00N 38°48' W 073°34'8 3.1
2018-Apr-23 09:30N 38°52' W 073°26'0 0.7
2018-Apr-23 08:55N 38°53' W 073°26'0 0.6
2018-Apr-23 08:29N 38°53' W 073°26'0 0.5
2018-Apr-23 07:46N 38°53' W 073°26'0 0.4
2018-Apr-23 07:30N 38°53' W 073°26'0 0.3
2018-Apr-23 07:00N 38°54' W 073°26'  
2018-Apr-18 16:54N 36°60' W 075°55'4 8.5
2018-Apr-18 16:29N 36°59' W 075°60'4 8.0
2018-Apr-18 16:00N 36°58' W 076°04'  
Track history (hours):
 
Tides and Currents Weather Stations Pressure Air Temp Water Temp Dewpoint Dewpoint Depression Visibility Wind Speed Wind Dir Waves Ship Positions

John & Nicholas

Owner: JOHN & NICHOLAS INC, CAPE MAY, NJ. More information available from US FCC via Universal Licensing System and Coast Guard Vessel Documentation Center.

Last reported at 2018-Apr-23 12:56 UTC. Time now 2018-Apr-26 05:53 UTC.
Position N 38°47' W 073°35'.

Length 29 m.

Type: Fishing. MMSI: 367181750.

Date/timePositionNaut miles runAvg speedWind from/ knotsBaromVisibWave heightAir tempDewpointWater temp
2018-Apr-23 12:56N 38°47' W 073°35'0 0.6
2018-Apr-23 12:21N 38°47' W 073°35'1 2.5
2018-Apr-23 12:00N 38°48' W 073°34'8 3.1
2018-Apr-23 09:30N 38°52' W 073°26'0 0.7
2018-Apr-23 08:55N 38°53' W 073°26'0 0.6
2018-Apr-23 08:29N 38°53' W 073°26'0 0.5
2018-Apr-23 07:46N 38°53' W 073°26'0 0.4
2018-Apr-23 07:30N 38°53' W 073°26'0 0.3
2018-Apr-23 07:00N 38°54' W 073°26'  
2018-Apr-18 16:54N 36°60' W 075°55'4 8.5
2018-Apr-18 16:29N 36°59' W 075°60'4 8.0
2018-Apr-18 16:00N 36°58' W 076°04'  

Dump ship's entire track history